sensor_id;sensor_type;location;lat;lon;timestamp;P1;durP1;ratioP1;P2;durP2;ratioP2
6821;SDS011;3449;48.728;8.968;2023-08-17T00:00:50;8.87;;;6.40;;
6821;SDS011;3449;48.728;8.968;2023-08-17T00:03:17;9.90;;;6.73;;
6821;SDS011;3449;48.728;8.968;2023-08-17T00:05:44;9.30;;;6.40;;
6821;SDS011;3449;48.728;8.968;2023-08-17T00:08:11;9.67;;;6.00;;
6821;SDS011;3449;48.728;8.968;2023-08-17T00:10:38;10.70;;;6.33;;
6821;SDS011;3449;48.728;8.968;2023-08-17T00:13:05;10.37;;;6.17;;
6821;SDS011;3449;48.728;8.968;2023-08-17T00:15:33;8.90;;;6.30;;
6821;SDS011;3449;48.728;8.968;2023-08-17T00:18:00;13.20;;;6.70;;
6821;SDS011;3449;48.728;8.968;2023-08-17T00:20:27;8.37;;;7.50;;
6821;SDS011;3449;48.728;8.968;2023-08-17T00:22:53;7.67;;;6.00;;
6821;SDS011;3449;48.728;8.968;2023-08-17T00:25:20;9.50;;;6.37;;
6821;SDS011;3449;48.728;8.968;2023-08-17T00:27:47;9.10;;;6.00;;
6821;SDS011;3449;48.728;8.968;2023-08-17T00:30:14;9.97;;;6.90;;
6821;SDS011;3449;48.728;8.968;2023-08-17T00:32:42;8.50;;;6.23;;
6821;SDS011;3449;48.728;8.968;2023-08-17T00:35:09;9.80;;;6.30;;
6821;SDS011;3449;48.728;8.968;2023-08-17T00:37:36;8.60;;;6.20;;
6821;SDS011;3449;48.728;8.968;2023-08-17T00:40:03;8.13;;;6.47;;
6821;SDS011;3449;48.728;8.968;2023-08-17T00:42:31;13.90;;;8.10;;
6821;SDS011;3449;48.728;8.968;2023-08-17T00:44:57;15.30;;;6.63;;
6821;SDS011;3449;48.728;8.968;2023-08-17T00:47:24;9.90;;;7.07;;
6821;SDS011;3449;48.728;8.968;2023-08-17T00:49:52;10.37;;;6.93;;
6821;SDS011;3449;48.728;8.968;2023-08-17T00:52:20;6.73;;;6.00;;
6821;SDS011;3449;48.728;8.968;2023-08-17T00:54:46;8.57;;;6.90;;
6821;SDS011;3449;48.728;8.968;2023-08-17T00:57:13;9.40;;;7.00;;
6821;SDS011;3449;48.728;8.968;2023-08-17T00:59:40;9.00;;;6.03;;
6821;SDS011;3449;48.728;8.968;2023-08-17T01:02:07;9.37;;;6.37;;
6821;SDS011;3449;48.728;8.968;2023-08-17T01:04:35;7.40;;;6.20;;
6821;SDS011;3449;48.728;8.968;2023-08-17T01:07:03;6.73;;;5.87;;
6821;SDS011;3449;48.728;8.968;2023-08-17T01:09:30;8.43;;;5.37;;
6821;SDS011;3449;48.728;8.968;2023-08-17T01:11:59;8.20;;;6.43;;
6821;SDS011;3449;48.728;8.968;2023-08-17T01:14:32;9.67;;;5.80;;
6821;SDS011;3449;48.728;8.968;2023-08-17T01:17:09;7.67;;;5.93;;
6821;SDS011;3449;48.728;8.968;2023-08-17T01:19:40;8.13;;;6.83;;
6821;SDS011;3449;48.728;8.968;2023-08-17T01:22:09;8.17;;;6.20;;
6821;SDS011;3449;48.728;8.968;2023-08-17T01:24:40;9.50;;;6.27;;
6821;SDS011;3449;48.728;8.968;2023-08-17T01:27:07;7.37;;;5.70;;
6821;SDS011;3449;48.728;8.968;2023-08-17T01:29:34;7.67;;;6.10;;
6821;SDS011;3449;48.728;8.968;2023-08-17T01:32:02;11.80;;;6.90;;
6821;SDS011;3449;48.728;8.968;2023-08-17T01:34:36;6.80;;;5.30;;
6821;SDS011;3449;48.728;8.968;2023-08-17T01:37:09;11.33;;;7.10;;
6821;SDS011;3449;48.728;8.968;2023-08-17T01:39:37;8.50;;;7.10;;
6821;SDS011;3449;48.728;8.968;2023-08-17T01:42:09;11.90;;;7.60;;
6821;SDS011;3449;48.728;8.968;2023-08-17T01:44:38;11.33;;;6.87;;
6821;SDS011;3449;48.728;8.968;2023-08-17T01:47:05;12.23;;;6.60;;
6821;SDS011;3449;48.728;8.968;2023-08-17T01:49:32;10.57;;;6.97;;
6821;SDS011;3449;48.728;8.968;2023-08-17T01:51:59;13.17;;;7.67;;
6821;SDS011;3449;48.728;8.968;2023-08-17T01:54:27;11.80;;;7.43;;
6821;SDS011;3449;48.728;8.968;2023-08-17T01:56:55;8.43;;;6.50;;
6821;SDS011;3449;48.728;8.968;2023-08-17T01:59:22;11.27;;;7.30;;
6821;SDS011;3449;48.728;8.968;2023-08-17T02:01:49;10.60;;;7.57;;
6821;SDS011;3449;48.728;8.968;2023-08-17T02:04:16;10.77;;;7.57;;
6821;SDS011;3449;48.728;8.968;2023-08-17T02:06:43;8.53;;;6.30;;
6821;SDS011;3449;48.728;8.968;2023-08-17T02:09:10;8.23;;;6.10;;
6821;SDS011;3449;48.728;8.968;2023-08-17T02:11:36;6.47;;;5.77;;
6821;SDS011;3449;48.728;8.968;2023-08-17T02:14:05;9.13;;;6.43;;
6821;SDS011;3449;48.728;8.968;2023-08-17T02:16:31;13.57;;;6.70;;
6821;SDS011;3449;48.728;8.968;2023-08-17T02:18:59;14.37;;;6.57;;
6821;SDS011;3449;48.728;8.968;2023-08-17T02:21:26;8.50;;;6.13;;
6821;SDS011;3449;48.728;8.968;2023-08-17T02:23:53;8.00;;;5.80;;
6821;SDS011;3449;48.728;8.968;2023-08-17T02:26:19;10.20;;;5.60;;
6821;SDS011;3449;48.728;8.968;2023-08-17T02:28:46;8.53;;;5.70;;
6821;SDS011;3449;48.728;8.968;2023-08-17T02:31:15;11.27;;;6.97;;
6821;SDS011;3449;48.728;8.968;2023-08-17T02:33:41;15.03;;;8.33;;
6821;SDS011;3449;48.728;8.968;2023-08-17T02:36:08;16.20;;;9.33;;
6821;SDS011;3449;48.728;8.968;2023-08-17T02:38:35;17.20;;;9.20;;
6821;SDS011;3449;48.728;8.968;2023-08-17T02:41:02;21.27;;;9.80;;
6821;SDS011;3449;48.728;8.968;2023-08-17T02:43:29;23.23;;;10.50;;
6821;SDS011;3449;48.728;8.968;2023-08-17T02:45:55;24.07;;;10.20;;
6821;SDS011;3449;48.728;8.968;2023-08-17T02:48:25;24.90;;;10.47;;
6821;SDS011;3449;48.728;8.968;2023-08-17T02:50:52;24.70;;;11.40;;
6821;SDS011;3449;48.728;8.968;2023-08-17T02:53:19;29.83;;;11.63;;
6821;SDS011;3449;48.728;8.968;2023-08-17T02:55:46;23.93;;;12.30;;
6821;SDS011;3449;48.728;8.968;2023-08-17T02:58:13;30.13;;;12.50;;
6821;SDS011;3449;48.728;8.968;2023-08-17T03:00:39;26.63;;;12.10;;
6821;SDS011;3449;48.728;8.968;2023-08-17T03:03:06;27.63;;;11.67;;
6821;SDS011;3449;48.728;8.968;2023-08-17T03:05:34;24.30;;;11.90;;
6821;SDS011;3449;48.728;8.968;2023-08-17T03:08:01;26.80;;;12.37;;
6821;SDS011;3449;48.728;8.968;2023-08-17T03:10:29;26.67;;;12.67;;
6821;SDS011;3449;48.728;8.968;2023-08-17T03:12:56;26.63;;;12.60;;
6821;SDS011;3449;48.728;8.968;2023-08-17T03:15:23;29.83;;;12.90;;
6821;SDS011;3449;48.728;8.968;2023-08-17T03:17:50;28.80;;;13.90;;
6821;SDS011;3449;48.728;8.968;2023-08-17T03:20:19;24.40;;;13.23;;
6821;SDS011;3449;48.728;8.968;2023-08-17T03:22:47;23.53;;;12.50;;
6821;SDS011;3449;48.728;8.968;2023-08-17T03:25:14;21.63;;;12.10;;
6821;SDS011;3449;48.728;8.968;2023-08-17T03:27:40;26.97;;;11.53;;
6821;SDS011;3449;48.728;8.968;2023-08-17T03:30:07;26.17;;;12.90;;
6821;SDS011;3449;48.728;8.968;2023-08-17T03:32:35;32.40;;;13.87;;
6821;SDS011;3449;48.728;8.968;2023-08-17T03:35:02;24.23;;;12.17;;
6821;SDS011;3449;48.728;8.968;2023-08-17T03:37:29;25.17;;;11.27;;
6821;SDS011;3449;48.728;8.968;2023-08-17T03:39:57;31.60;;;13.27;;
6821;SDS011;3449;48.728;8.968;2023-08-17T03:42:25;25.50;;;11.20;;
6821;SDS011;3449;48.728;8.968;2023-08-17T03:44:52;20.50;;;10.70;;
6821;SDS011;3449;48.728;8.968;2023-08-17T03:47:19;24.40;;;11.73;;
6821;SDS011;3449;48.728;8.968;2023-08-17T03:49:46;22.60;;;11.00;;
6821;SDS011;3449;48.728;8.968;2023-08-17T03:52:13;22.53;;;12.33;;
6821;SDS011;3449;48.728;8.968;2023-08-17T03:54:40;20.57;;;10.77;;
6821;SDS011;3449;48.728;8.968;2023-08-17T03:57:08;19.13;;;10.20;;
6821;SDS011;3449;48.728;8.968;2023-08-17T03:59:35;25.57;;;10.40;;
6821;SDS011;3449;48.728;8.968;2023-08-17T04:02:01;22.30;;;11.20;;
6821;SDS011;3449;48.728;8.968;2023-08-17T04:04:28;22.17;;;11.40;;
6821;SDS011;3449;48.728;8.968;2023-08-17T04:06:55;19.40;;;10.73;;
6821;SDS011;3449;48.728;8.968;2023-08-17T04:09:22;19.20;;;9.67;;
6821;SDS011;3449;48.728;8.968;2023-08-17T04:11:49;20.47;;;10.20;;
6821;SDS011;3449;48.728;8.968;2023-08-17T04:14:17;23.40;;;10.13;;
6821;SDS011;3449;48.728;8.968;2023-08-17T04:16:44;25.73;;;12.30;;
6821;SDS011;3449;48.728;8.968;2023-08-17T04:19:10;22.57;;;9.77;;
6821;SDS011;3449;48.728;8.968;2023-08-17T04:21:37;22.87;;;10.47;;
6821;SDS011;3449;48.728;8.968;2023-08-17T04:24:04;21.10;;;11.40;;
6821;SDS011;3449;48.728;8.968;2023-08-17T04:26:32;24.40;;;11.20;;
6821;SDS011;3449;48.728;8.968;2023-08-17T04:28:58;28.13;;;13.10;;
6821;SDS011;3449;48.728;8.968;2023-08-17T04:31:27;27.57;;;11.33;;
6821;SDS011;3449;48.728;8.968;2023-08-17T04:33:54;20.47;;;10.50;;
6821;SDS011;3449;48.728;8.968;2023-08-17T04:36:20;24.27;;;12.20;;
6821;SDS011;3449;48.728;8.968;2023-08-17T04:38:47;21.80;;;10.93;;
6821;SDS011;3449;48.728;8.968;2023-08-17T04:41:14;21.20;;;11.10;;
6821;SDS011;3449;48.728;8.968;2023-08-17T04:43:41;26.67;;;12.63;;
6821;SDS011;3449;48.728;8.968;2023-08-17T04:46:08;18.37;;;10.97;;
6821;SDS011;3449;48.728;8.968;2023-08-17T04:48:36;30.23;;;11.97;;
6821;SDS011;3449;48.728;8.968;2023-08-17T04:51:03;20.97;;;10.90;;
6821;SDS011;3449;48.728;8.968;2023-08-17T04:53:30;20.33;;;10.37;;
6821;SDS011;3449;48.728;8.968;2023-08-17T04:55:58;20.37;;;10.47;;
6821;SDS011;3449;48.728;8.968;2023-08-17T04:58:25;23.60;;;11.90;;
6821;SDS011;3449;48.728;8.968;2023-08-17T05:00:51;19.23;;;9.13;;
6821;SDS011;3449;48.728;8.968;2023-08-17T05:03:18;21.70;;;10.40;;
6821;SDS011;3449;48.728;8.968;2023-08-17T05:05:46;25.00;;;12.47;;
6821;SDS011;3449;48.728;8.968;2023-08-17T05:08:14;27.57;;;13.53;;
6821;SDS011;3449;48.728;8.968;2023-08-17T05:10:40;20.23;;;11.33;;
6821;SDS011;3449;48.728;8.968;2023-08-17T05:13:07;22.60;;;11.37;;
6821;SDS011;3449;48.728;8.968;2023-08-17T05:15:34;23.27;;;11.60;;
6821;SDS011;3449;48.728;8.968;2023-08-17T05:18:01;20.80;;;10.80;;
6821;SDS011;3449;48.728;8.968;2023-08-17T05:20:28;24.60;;;11.57;;
6821;SDS011;3449;48.728;8.968;2023-08-17T05:22:56;24.57;;;11.83;;
6821;SDS011;3449;48.728;8.968;2023-08-17T05:25:23;22.83;;;12.23;;
6821;SDS011;3449;48.728;8.968;2023-08-17T05:27:51;20.53;;;10.80;;
6821;SDS011;3449;48.728;8.968;2023-08-17T05:30:18;23.13;;;11.63;;
6821;SDS011;3449;48.728;8.968;2023-08-17T05:32:45;21.30;;;10.97;;
6821;SDS011;3449;48.728;8.968;2023-08-17T05:35:11;25.43;;;11.87;;
6821;SDS011;3449;48.728;8.968;2023-08-17T05:37:38;24.60;;;13.43;;
6821;SDS011;3449;48.728;8.968;2023-08-17T05:40:07;18.23;;;10.50;;
6821;SDS011;3449;48.728;8.968;2023-08-17T05:42:35;24.03;;;10.60;;
6821;SDS011;3449;48.728;8.968;2023-08-17T05:45:02;16.57;;;10.33;;
6821;SDS011;3449;48.728;8.968;2023-08-17T05:47:30;14.40;;;9.33;;
6821;SDS011;3449;48.728;8.968;2023-08-17T05:49:57;17.83;;;10.27;;
6821;SDS011;3449;48.728;8.968;2023-08-17T05:52:24;27.60;;;13.20;;
6821;SDS011;3449;48.728;8.968;2023-08-17T05:54:50;34.20;;;13.73;;
6821;SDS011;3449;48.728;8.968;2023-08-17T05:57:19;19.90;;;12.07;;
6821;SDS011;3449;48.728;8.968;2023-08-17T05:59:45;20.87;;;11.83;;
6821;SDS011;3449;48.728;8.968;2023-08-17T06:02:12;23.60;;;11.90;;
6821;SDS011;3449;48.728;8.968;2023-08-17T06:04:39;23.60;;;12.10;;
6821;SDS011;3449;48.728;8.968;2023-08-17T06:07:06;23.70;;;12.27;;
6821;SDS011;3449;48.728;8.968;2023-08-17T06:09:33;20.00;;;11.40;;
6821;SDS011;3449;48.728;8.968;2023-08-17T06:12:00;19.10;;;10.77;;
6821;SDS011;3449;48.728;8.968;2023-08-17T06:14:28;19.40;;;10.30;;
6821;SDS011;3449;48.728;8.968;2023-08-17T06:16:55;21.67;;;12.33;;
6821;SDS011;3449;48.728;8.968;2023-08-17T06:19:22;21.27;;;11.80;;
6821;SDS011;3449;48.728;8.968;2023-08-17T06:21:49;18.90;;;11.90;;
6821;SDS011;3449;48.728;8.968;2023-08-17T06:24:15;24.00;;;11.87;;
6821;SDS011;3449;48.728;8.968;2023-08-17T06:26:42;23.20;;;13.07;;
6821;SDS011;3449;48.728;8.968;2023-08-17T06:29:10;21.50;;;12.23;;
6821;SDS011;3449;48.728;8.968;2023-08-17T06:31:38;30.67;;;12.73;;
6821;SDS011;3449;48.728;8.968;2023-08-17T06:34:05;22.00;;;11.93;;
6821;SDS011;3449;48.728;8.968;2023-08-17T06:36:32;22.30;;;12.50;;
6821;SDS011;3449;48.728;8.968;2023-08-17T06:38:59;20.10;;;11.40;;
6821;SDS011;3449;48.728;8.968;2023-08-17T06:41:26;18.43;;;10.60;;
6821;SDS011;3449;48.728;8.968;2023-08-17T06:43:53;14.83;;;9.30;;
6821;SDS011;3449;48.728;8.968;2023-08-17T06:46:20;15.80;;;9.03;;
6821;SDS011;3449;48.728;8.968;2023-08-17T06:48:48;19.63;;;11.20;;
6821;SDS011;3449;48.728;8.968;2023-08-17T06:51:15;12.77;;;8.40;;
6821;SDS011;3449;48.728;8.968;2023-08-17T06:53:41;22.63;;;10.20;;
6821;SDS011;3449;48.728;8.968;2023-08-17T06:56:09;17.77;;;10.70;;
6821;SDS011;3449;48.728;8.968;2023-08-17T06:58:35;14.67;;;9.70;;
6821;SDS011;3449;48.728;8.968;2023-08-17T07:01:02;15.03;;;9.60;;
6821;SDS011;3449;48.728;8.968;2023-08-17T07:03:29;16.33;;;8.63;;
6821;SDS011;3449;48.728;8.968;2023-08-17T07:05:57;20.90;;;9.40;;
6821;SDS011;3449;48.728;8.968;2023-08-17T07:08:24;20.10;;;11.10;;
6821;SDS011;3449;48.728;8.968;2023-08-17T07:10:51;16.57;;;10.60;;
6821;SDS011;3449;48.728;8.968;2023-08-17T07:13:17;18.70;;;10.27;;
6821;SDS011;3449;48.728;8.968;2023-08-17T07:15:46;16.60;;;9.53;;
6821;SDS011;3449;48.728;8.968;2023-08-17T07:18:12;17.80;;;10.97;;
6821;SDS011;3449;48.728;8.968;2023-08-17T07:20:39;16.77;;;10.30;;
6821;SDS011;3449;48.728;8.968;2023-08-17T07:23:07;19.27;;;10.70;;
6821;SDS011;3449;48.728;8.968;2023-08-17T07:25:34;16.50;;;10.80;;
6821;SDS011;3449;48.728;8.968;2023-08-17T07:28:01;14.87;;;10.47;;
6821;SDS011;3449;48.728;8.968;2023-08-17T07:30:28;16.83;;;10.30;;
6821;SDS011;3449;48.728;8.968;2023-08-17T07:32:55;16.23;;;9.90;;
6821;SDS011;3449;48.728;8.968;2023-08-17T07:35:22;15.33;;;8.70;;
6821;SDS011;3449;48.728;8.968;2023-08-17T07:37:48;13.70;;;9.73;;
6821;SDS011;3449;48.728;8.968;2023-08-17T07:40:17;11.77;;;9.30;;
6821;SDS011;3449;48.728;8.968;2023-08-17T07:42:45;13.30;;;9.30;;
6821;SDS011;3449;48.728;8.968;2023-08-17T07:45:12;13.53;;;9.60;;
6821;SDS011;3449;48.728;8.968;2023-08-17T07:47:39;14.50;;;8.93;;
6821;SDS011;3449;48.728;8.968;2023-08-17T07:50:06;14.47;;;10.17;;
6821;SDS011;3449;48.728;8.968;2023-08-17T07:52:33;13.50;;;9.37;;
6821;SDS011;3449;48.728;8.968;2023-08-17T07:55:00;19.07;;;9.67;;
6821;SDS011;3449;48.728;8.968;2023-08-17T07:57:29;12.77;;;8.73;;
6821;SDS011;3449;48.728;8.968;2023-08-17T07:59:56;18.40;;;9.80;;
6821;SDS011;3449;48.728;8.968;2023-08-17T08:02:23;14.33;;;9.67;;
6821;SDS011;3449;48.728;8.968;2023-08-17T08:04:50;14.37;;;9.67;;
6821;SDS011;3449;48.728;8.968;2023-08-17T08:07:17;14.53;;;10.00;;
6821;SDS011;3449;48.728;8.968;2023-08-17T08:09:43;15.23;;;10.70;;
6821;SDS011;3449;48.728;8.968;2023-08-17T08:12:10;14.60;;;10.47;;
6821;SDS011;3449;48.728;8.968;2023-08-17T08:14:38;15.07;;;9.80;;
6821;SDS011;3449;48.728;8.968;2023-08-17T08:17:05;17.37;;;10.27;;
6821;SDS011;3449;48.728;8.968;2023-08-17T08:19:32;16.20;;;10.40;;
6821;SDS011;3449;48.728;8.968;2023-08-17T08:21:59;13.53;;;8.77;;
6821;SDS011;3449;48.728;8.968;2023-08-17T08:24:27;12.57;;;8.77;;
6821;SDS011;3449;48.728;8.968;2023-08-17T08:26:58;13.40;;;8.73;;
6821;SDS011;3449;48.728;8.968;2023-08-17T08:29:25;10.37;;;8.07;;
6821;SDS011;3449;48.728;8.968;2023-08-17T08:31:53;14.43;;;8.90;;
6821;SDS011;3449;48.728;8.968;2023-08-17T08:34:22;11.07;;;8.03;;
6821;SDS011;3449;48.728;8.968;2023-08-17T08:36:49;15.03;;;8.43;;
6821;SDS011;3449;48.728;8.968;2023-08-17T08:39:16;11.83;;;8.53;;
6821;SDS011;3449;48.728;8.968;2023-08-17T08:41:43;12.73;;;9.43;;
6821;SDS011;3449;48.728;8.968;2023-08-17T08:44:10;14.77;;;9.87;;
6821;SDS011;3449;48.728;8.968;2023-08-17T08:46:37;16.50;;;9.87;;
6821;SDS011;3449;48.728;8.968;2023-08-17T08:49:08;15.80;;;9.50;;
6821;SDS011;3449;48.728;8.968;2023-08-17T08:51:38;12.37;;;8.23;;
6821;SDS011;3449;48.728;8.968;2023-08-17T08:54:10;12.20;;;7.10;;
6821;SDS011;3449;48.728;8.968;2023-08-17T08:56:40;14.60;;;8.80;;
6821;SDS011;3449;48.728;8.968;2023-08-17T08:59:10;10.37;;;7.07;;
6821;SDS011;3449;48.728;8.968;2023-08-17T09:01:38;13.83;;;7.30;;
6821;SDS011;3449;48.728;8.968;2023-08-17T09:04:05;9.77;;;6.80;;
6821;SDS011;3449;48.728;8.968;2023-08-17T09:06:33;9.40;;;6.80;;
6821;SDS011;3449;48.728;8.968;2023-08-17T09:09:01;9.90;;;7.23;;
6821;SDS011;3449;48.728;8.968;2023-08-17T09:11:28;7.57;;;5.53;;
6821;SDS011;3449;48.728;8.968;2023-08-17T09:13:56;7.37;;;5.83;;
6821;SDS011;3449;48.728;8.968;2023-08-17T09:16:23;8.63;;;5.67;;
6821;SDS011;3449;48.728;8.968;2023-08-17T09:18:51;6.20;;;5.03;;
6821;SDS011;3449;48.728;8.968;2023-08-17T09:21:22;7.63;;;4.60;;
6821;SDS011;3449;48.728;8.968;2023-08-17T09:23:53;6.20;;;4.87;;
6821;SDS011;3449;48.728;8.968;2023-08-17T09:26:21;5.77;;;5.23;;
6821;SDS011;3449;48.728;8.968;2023-08-17T09:28:48;7.63;;;4.90;;
6821;SDS011;3449;48.728;8.968;2023-08-17T09:31:16;7.40;;;4.60;;
6821;SDS011;3449;48.728;8.968;2023-08-17T09:33:48;6.00;;;5.37;;
6821;SDS011;3449;48.728;8.968;2023-08-17T09:36:19;5.20;;;4.67;;
6821;SDS011;3449;48.728;8.968;2023-08-17T09:38:47;6.53;;;4.50;;
6821;SDS011;3449;48.728;8.968;2023-08-17T09:41:17;12.97;;;5.57;;
6821;SDS011;3449;48.728;8.968;2023-08-17T09:43:44;7.90;;;5.40;;
6821;SDS011;3449;48.728;8.968;2023-08-17T09:46:11;6.70;;;5.93;;
6821;SDS011;3449;48.728;8.968;2023-08-17T09:48:38;6.23;;;5.07;;
6821;SDS011;3449;48.728;8.968;2023-08-17T09:51:05;9.43;;;6.00;;
6821;SDS011;3449;48.728;8.968;2023-08-17T09:53:34;9.57;;;5.97;;
6821;SDS011;3449;48.728;8.968;2023-08-17T09:56:02;5.67;;;5.07;;
6821;SDS011;3449;48.728;8.968;2023-08-17T09:58:32;6.90;;;4.50;;
6821;SDS011;3449;48.728;8.968;2023-08-17T10:00:59;5.87;;;4.43;;
6821;SDS011;3449;48.728;8.968;2023-08-17T10:03:29;6.60;;;4.77;;
6821;SDS011;3449;48.728;8.968;2023-08-17T10:05:59;5.10;;;4.33;;
6821;SDS011;3449;48.728;8.968;2023-08-17T10:08:31;9.97;;;5.30;;
6821;SDS011;3449;48.728;8.968;2023-08-17T10:11:02;7.33;;;5.20;;
6821;SDS011;3449;48.728;8.968;2023-08-17T10:13:34;5.30;;;4.80;;
6821;SDS011;3449;48.728;8.968;2023-08-17T10:16:08;5.67;;;4.60;;
6821;SDS011;3449;48.728;8.968;2023-08-17T10:18:42;8.93;;;5.57;;
6821;SDS011;3449;48.728;8.968;2023-08-17T10:21:18;7.30;;;4.60;;
6821;SDS011;3449;48.728;8.968;2023-08-17T10:23:49;6.33;;;5.00;;
6821;SDS011;3449;48.728;8.968;2023-08-17T10:26:16;5.83;;;4.57;;
6821;SDS011;3449;48.728;8.968;2023-08-17T10:28:45;4.93;;;4.43;;
6821;SDS011;3449;48.728;8.968;2023-08-17T10:31:14;4.57;;;4.07;;
6821;SDS011;3449;48.728;8.968;2023-08-17T10:33:41;4.70;;;4.07;;
6821;SDS011;3449;48.728;8.968;2023-08-17T10:36:11;6.27;;;4.40;;
6821;SDS011;3449;48.728;8.968;2023-08-17T10:38:38;4.83;;;3.70;;
6821;SDS011;3449;48.728;8.968;2023-08-17T10:41:08;5.90;;;4.60;;
6821;SDS011;3449;48.728;8.968;2023-08-17T10:46:31;4.70;;;4.30;;
6821;SDS011;3449;48.728;8.968;2023-08-17T10:49:00;5.97;;;4.80;;
6821;SDS011;3449;48.728;8.968;2023-08-17T10:51:29;7.80;;;4.57;;
6821;SDS011;3449;48.728;8.968;2023-08-17T10:53:56;7.70;;;5.30;;
6821;SDS011;3449;48.728;8.968;2023-08-17T10:56:26;5.87;;;4.33;;
6821;SDS011;3449;48.728;8.968;2023-08-17T10:58:54;8.97;;;4.40;;
6821;SDS011;3449;48.728;8.968;2023-08-17T11:01:35;5.60;;;4.50;;
6821;SDS011;3449;48.728;8.968;2023-08-17T11:04:09;4.93;;;4.17;;
6821;SDS011;3449;48.728;8.968;2023-08-17T11:06:37;6.10;;;4.70;;
6821;SDS011;3449;48.728;8.968;2023-08-17T11:09:06;4.10;;;3.70;;
6821;SDS011;3449;48.728;8.968;2023-08-17T11:11:34;6.10;;;4.50;;
6821;SDS011;3449;48.728;8.968;2023-08-17T11:14:01;4.30;;;3.90;;
6821;SDS011;3449;48.728;8.968;2023-08-17T11:16:28;5.00;;;3.97;;
6821;SDS011;3449;48.728;8.968;2023-08-17T11:18:56;5.00;;;4.03;;
6821;SDS011;3449;48.728;8.968;2023-08-17T11:21:24;5.30;;;4.80;;
6821;SDS011;3449;48.728;8.968;2023-08-17T11:23:52;4.63;;;3.80;;
6821;SDS011;3449;48.728;8.968;2023-08-17T11:26:22;6.20;;;4.33;;
6821;SDS011;3449;48.728;8.968;2023-08-17T11:28:50;5.00;;;4.53;;
6821;SDS011;3449;48.728;8.968;2023-08-17T11:31:18;5.03;;;4.53;;
6821;SDS011;3449;48.728;8.968;2023-08-17T11:33:44;6.33;;;4.40;;
6821;SDS011;3449;48.728;8.968;2023-08-17T11:36:13;4.87;;;4.20;;
6821;SDS011;3449;48.728;8.968;2023-08-17T11:38:41;4.63;;;4.23;;
6821;SDS011;3449;48.728;8.968;2023-08-17T11:41:09;5.67;;;4.20;;
6821;SDS011;3449;48.728;8.968;2023-08-17T11:43:37;4.83;;;4.13;;
6821;SDS011;3449;48.728;8.968;2023-08-17T11:46:04;5.90;;;4.10;;
6821;SDS011;3449;48.728;8.968;2023-08-17T11:48:31;6.07;;;5.10;;
6821;SDS011;3449;48.728;8.968;2023-08-17T11:50:59;4.10;;;3.53;;
6821;SDS011;3449;48.728;8.968;2023-08-17T11:53:33;5.90;;;4.07;;
6821;SDS011;3449;48.728;8.968;2023-08-17T11:56:01;3.83;;;3.40;;
6821;SDS011;3449;48.728;8.968;2023-08-17T11:58:39;6.17;;;4.07;;
6821;SDS011;3449;48.728;8.968;2023-08-17T12:01:08;5.00;;;3.73;;
6821;SDS011;3449;48.728;8.968;2023-08-17T12:03:36;5.23;;;3.43;;
6821;SDS011;3449;48.728;8.968;2023-08-17T12:06:04;4.40;;;4.00;;
6821;SDS011;3449;48.728;8.968;2023-08-17T12:08:31;5.03;;;3.73;;
6821;SDS011;3449;48.728;8.968;2023-08-17T12:11:00;7.30;;;4.60;;
6821;SDS011;3449;48.728;8.968;2023-08-17T12:13:32;3.70;;;3.07;;
6821;SDS011;3449;48.728;8.968;2023-08-17T12:16:00;9.03;;;4.43;;
6821;SDS011;3449;48.728;8.968;2023-08-17T12:18:26;3.97;;;3.60;;
6821;SDS011;3449;48.728;8.968;2023-08-17T12:20:54;6.03;;;4.30;;
6821;SDS011;3449;48.728;8.968;2023-08-17T12:23:21;5.10;;;3.77;;
6821;SDS011;3449;48.728;8.968;2023-08-17T12:25:53;8.20;;;4.97;;
6821;SDS011;3449;48.728;8.968;2023-08-17T12:28:21;5.80;;;4.13;;
6821;SDS011;3449;48.728;8.968;2023-08-17T12:30:56;6.90;;;4.03;;
6821;SDS011;3449;48.728;8.968;2023-08-17T12:33:24;11.13;;;3.90;;
6821;SDS011;3449;48.728;8.968;2023-08-17T12:35:51;7.70;;;5.70;;
6821;SDS011;3449;48.728;8.968;2023-08-17T12:38:18;7.50;;;4.50;;
6821;SDS011;3449;48.728;8.968;2023-08-17T12:40:45;7.30;;;4.50;;
6821;SDS011;3449;48.728;8.968;2023-08-17T12:43:14;7.97;;;6.07;;
6821;SDS011;3449;48.728;8.968;2023-08-17T12:45:41;9.70;;;6.60;;
6821;SDS011;3449;48.728;8.968;2023-08-17T12:48:08;8.93;;;7.37;;
6821;SDS011;3449;48.728;8.968;2023-08-17T12:50:35;18.20;;;7.87;;
6821;SDS011;3449;48.728;8.968;2023-08-17T12:53:01;15.47;;;5.70;;
6821;SDS011;3449;48.728;8.968;2023-08-17T12:55:28;11.50;;;5.30;;
6821;SDS011;3449;48.728;8.968;2023-08-17T12:57:55;12.00;;;4.33;;
6821;SDS011;3449;48.728;8.968;2023-08-17T13:00:24;16.80;;;6.57;;
6821;SDS011;3449;48.728;8.968;2023-08-17T13:02:50;15.70;;;4.53;;
6821;SDS011;3449;48.728;8.968;2023-08-17T13:05:17;8.93;;;4.20;;
6821;SDS011;3449;48.728;8.968;2023-08-17T13:07:44;7.17;;;4.80;;
6821;SDS011;3449;48.728;8.968;2023-08-17T13:10:11;7.90;;;4.47;;
6821;SDS011;3449;48.728;8.968;2023-08-17T13:12:38;7.87;;;4.67;;
6821;SDS011;3449;48.728;8.968;2023-08-17T13:15:05;10.73;;;4.30;;
6821;SDS011;3449;48.728;8.968;2023-08-17T13:17:34;13.90;;;3.97;;
6821;SDS011;3449;48.728;8.968;2023-08-17T13:20:01;5.77;;;4.03;;
6821;SDS011;3449;48.728;8.968;2023-08-17T13:22:28;4.80;;;3.57;;
6821;SDS011;3449;48.728;8.968;2023-08-17T13:24:55;9.90;;;4.50;;
6821;SDS011;3449;48.728;8.968;2023-08-17T13:27:22;9.90;;;5.00;;
6821;SDS011;3449;48.728;8.968;2023-08-17T13:29:49;8.70;;;5.37;;
6821;SDS011;3449;48.728;8.968;2023-08-17T13:32:16;7.50;;;5.60;;
6821;SDS011;3449;48.728;8.968;2023-08-17T13:34:44;11.63;;;5.70;;
6821;SDS011;3449;48.728;8.968;2023-08-17T13:37:11;15.33;;;6.30;;
6821;SDS011;3449;48.728;8.968;2023-08-17T13:39:38;12.07;;;7.30;;
6821;SDS011;3449;48.728;8.968;2023-08-17T13:42:05;9.70;;;7.50;;
6821;SDS011;3449;48.728;8.968;2023-08-17T13:44:32;14.17;;;8.20;;
6821;SDS011;3449;48.728;8.968;2023-08-17T13:46:59;20.33;;;11.77;;
6821;SDS011;3449;48.728;8.968;2023-08-17T13:49:26;20.27;;;11.50;;
6821;SDS011;3449;48.728;8.968;2023-08-17T13:51:55;18.90;;;12.33;;
6821;SDS011;3449;48.728;8.968;2023-08-17T13:54:22;20.63;;;13.90;;
6821;SDS011;3449;48.728;8.968;2023-08-17T13:56:49;16.10;;;12.00;;
6821;SDS011;3449;48.728;8.968;2023-08-17T13:59:16;19.30;;;13.80;;
6821;SDS011;3449;48.728;8.968;2023-08-17T14:01:43;22.13;;;13.10;;
6821;SDS011;3449;48.728;8.968;2023-08-17T14:04:10;16.40;;;12.50;;
6821;SDS011;3449;48.728;8.968;2023-08-17T14:06:37;18.00;;;13.80;;
6821;SDS011;3449;48.728;8.968;2023-08-17T14:09:06;17.83;;;13.00;;
6821;SDS011;3449;48.728;8.968;2023-08-17T14:11:33;16.73;;;12.10;;
6821;SDS011;3449;48.728;8.968;2023-08-17T14:14:00;20.90;;;14.77;;
6821;SDS011;3449;48.728;8.968;2023-08-17T14:16:27;18.77;;;13.60;;
6821;SDS011;3449;48.728;8.968;2023-08-17T14:18:53;18.80;;;14.13;;
6821;SDS011;3449;48.728;8.968;2023-08-17T14:21:20;19.20;;;14.10;;
6821;SDS011;3449;48.728;8.968;2023-08-17T14:23:47;19.63;;;13.33;;
6821;SDS011;3449;48.728;8.968;2023-08-17T14:26:16;22.93;;;14.23;;
6821;SDS011;3449;48.728;8.968;2023-08-17T14:28:43;18.27;;;13.43;;
6821;SDS011;3449;48.728;8.968;2023-08-17T14:31:09;17.73;;;12.80;;
6821;SDS011;3449;48.728;8.968;2023-08-17T14:33:40;23.73;;;12.80;;
6821;SDS011;3449;48.728;8.968;2023-08-17T14:36:07;17.13;;;12.47;;
6821;SDS011;3449;48.728;8.968;2023-08-17T14:38:34;20.83;;;12.10;;
6821;SDS011;3449;48.728;8.968;2023-08-17T14:41:01;16.00;;;11.33;;
6821;SDS011;3449;48.728;8.968;2023-08-17T14:43:30;13.43;;;10.47;;
6821;SDS011;3449;48.728;8.968;2023-08-17T14:45:57;16.77;;;11.70;;
6821;SDS011;3449;48.728;8.968;2023-08-17T14:48:24;17.33;;;10.43;;
6821;SDS011;3449;48.728;8.968;2023-08-17T14:50:51;14.23;;;11.13;;
6821;SDS011;3449;48.728;8.968;2023-08-17T14:53:18;17.60;;;11.53;;
6821;SDS011;3449;48.728;8.968;2023-08-17T14:55:45;14.10;;;11.00;;
6821;SDS011;3449;48.728;8.968;2023-08-17T14:58:12;14.87;;;10.57;;
6821;SDS011;3449;48.728;8.968;2023-08-17T15:00:41;13.23;;;9.70;;
6821;SDS011;3449;48.728;8.968;2023-08-17T15:03:08;12.17;;;8.37;;
6821;SDS011;3449;48.728;8.968;2023-08-17T15:05:35;13.10;;;8.33;;